createdAt,value
2022-09-28T00:01:19.914Z,2.95
2022-09-28T00:03:49.253Z,3.53
2022-09-28T00:06:19.537Z,3.17
2022-09-28T00:08:47.253Z,3.45
2022-09-28T00:11:15.563Z,2.80
2022-09-28T00:13:44.560Z,4.15
2022-09-28T00:16:17.261Z,3.33
2022-09-28T00:18:45.672Z,3.70
2022-09-28T00:21:19.023Z,3.90
2022-09-28T00:24:05.337Z,3.47
2022-09-28T00:26:33.994Z,4.18
2022-09-28T00:29:02.624Z,3.63
2022-09-28T00:31:32.783Z,4.10
2022-09-28T00:34:02.495Z,3.67
2022-09-28T00:36:31.502Z,3.40
2022-09-28T00:38:59.609Z,3.28
2022-09-28T00:41:28.315Z,3.58
2022-09-28T00:44:26.929Z,3.42
2022-09-28T00:47:14.790Z,2.95
2022-09-28T00:50:01.172Z,3.88
2022-09-28T00:52:38.387Z,2.92
2022-09-28T00:55:11.445Z,3.00
2022-09-28T00:57:42.369Z,2.70
2022-09-28T01:00:11.593Z,2.72
2022-09-28T01:02:40.398Z,2.75
2022-09-28T01:05:10.408Z,2.60
2022-09-28T01:07:38.917Z,2.50
2022-09-28T01:10:07.342Z,2.60
2022-09-28T01:12:34.883Z,3.22
2022-09-28T01:15:03.702Z,2.28
2022-09-28T01:17:40.063Z,2.60
2022-09-28T01:20:27.283Z,2.72
2022-09-28T01:23:09.381Z,2.55
2022-09-28T01:26:10.097Z,2.40
2022-09-28T01:28:38.171Z,2.58
2022-09-28T01:31:09.125Z,2.95
2022-09-28T01:33:46.322Z,2.88
2022-09-28T01:36:43.833Z,2.92
2022-09-28T01:39:15.565Z,2.78
2022-09-28T01:41:46.707Z,2.20
2022-09-28T01:46:48.368Z,2.63
2022-09-28T01:49:27.468Z,2.80
2022-09-28T01:52:02.682Z,2.72
2022-09-28T01:54:44.963Z,2.40
2022-09-28T01:57:29.944Z,2.88
2022-09-28T02:00:08.454Z,2.60
2022-09-28T02:02:50.161Z,2.78
2022-09-28T02:05:42.078Z,2.20
2022-09-28T02:08:31.134Z,2.75
2022-09-28T02:11:07.943Z,3.28
2022-09-28T02:14:01.057Z,3.22
2022-09-28T02:16:36.497Z,2.78
2022-09-28T02:19:05.460Z,2.42
2022-09-28T02:22:07.299Z,2.60
2022-09-28T02:24:50.780Z,2.83
2022-09-28T02:27:48.582Z,2.63
2022-09-28T02:30:17.930Z,2.25
2022-09-28T02:32:49.810Z,2.47
2022-09-28T02:35:19.753Z,2.83
2022-09-28T02:37:47.345Z,2.47
2022-09-28T02:40:16.527Z,3.63
2022-09-28T02:42:55.008Z,2.58
2022-09-28T02:45:49.876Z,2.25
2022-09-28T02:48:43.868Z,2.78
2022-09-28T02:51:22.254Z,2.22
2022-09-28T02:54:11.979Z,2.40
2022-09-28T02:56:50.913Z,2.88
2022-09-28T02:59:43.954Z,2.72
2022-09-28T03:02:32.184Z,1.92
2022-09-28T03:05:23.331Z,2.45
2022-09-28T03:07:59.299Z,2.47
2022-09-28T03:10:41.770Z,2.72
2022-09-28T03:13:09.811Z,2.35
2022-09-28T03:15:40.410Z,2.65
2022-09-28T03:18:07.857Z,2.17
2022-09-28T03:20:35.400Z,2.33
2022-09-28T03:23:23.939Z,2.40
2022-09-28T03:25:51.771Z,3.30
2022-09-28T03:28:19.470Z,2.10
2022-09-28T03:30:48.447Z,3.15
2022-09-28T03:33:16.149Z,2.55
2022-09-28T03:35:48.038Z,2.78
2022-09-28T03:38:20.098Z,3.00
2022-09-28T03:40:59.364Z,2.78
2022-09-28T03:46:01.866Z,2.70
2022-09-28T03:48:33.823Z,2.17
2022-09-28T03:51:09.151Z,2.50
2022-09-28T03:53:37.421Z,2.20
2022-09-28T03:56:06.713Z,3.05
2022-09-28T03:58:34.596Z,2.60
2022-09-28T04:01:04.433Z,2.53
2022-09-28T04:03:31.934Z,2.10
2022-09-28T04:06:00.058Z,2.15
2022-09-28T04:08:28.093Z,3.08
2022-09-28T04:11:00.155Z,2.40
2022-09-28T04:13:29.161Z,3.42
2022-09-28T04:15:59.177Z,3.03
2022-09-28T04:18:28.726Z,2.50
2022-09-28T04:21:17.117Z,2.78
2022-09-28T04:23:48.758Z,2.70
2022-09-28T04:26:28.352Z,2.63
2022-09-28T04:29:16.022Z,2.47
2022-09-28T04:31:57.442Z,2.67
2022-09-28T04:34:41.881Z,2.30
2022-09-28T04:37:11.842Z,2.50
2022-09-28T04:39:43.938Z,3.05
2022-09-28T04:42:13.990Z,3.88
2022-09-28T04:44:41.349Z,3.17
2022-09-28T04:47:10.175Z,2.97
2022-09-28T04:49:52.990Z,2.90
2022-09-28T04:52:27.228Z,2.78
2022-09-28T04:54:54.770Z,2.85
2022-09-28T04:57:22.287Z,3.28
2022-09-28T04:59:49.786Z,2.47
2022-09-28T05:02:18.813Z,2.83
2022-09-28T05:05:11.634Z,3.42
2022-09-28T05:08:04.746Z,2.70
2022-09-28T05:10:32.250Z,2.80
2022-09-28T05:13:02.354Z,2.80
2022-09-28T05:15:30.972Z,3.20
2022-09-28T05:17:58.442Z,3.03
2022-09-28T05:20:41.762Z,2.83
2022-09-28T05:23:11.414Z,3.28
2022-09-28T05:25:40.021Z,3.17
2022-09-28T05:28:25.108Z,2.50
2022-09-28T05:31:32.341Z,2.67
2022-09-28T05:34:38.465Z,3.08
2022-09-28T05:37:06.096Z,3.38
2022-09-28T05:39:33.618Z,2.97
2022-09-28T05:42:01.736Z,2.97
2022-09-28T05:44:30.388Z,3.35
2022-09-28T05:46:57.846Z,2.90
2022-09-28T05:49:25.222Z,3.22
2022-09-28T05:51:52.648Z,3.85
2022-09-28T05:54:21.192Z,2.75
2022-09-28T05:56:48.921Z,2.92
2022-09-28T05:59:17.173Z,2.95
2022-09-28T06:01:44.772Z,3.83
2022-09-28T06:04:12.913Z,3.33
2022-09-28T06:06:43.128Z,3.25
2022-09-28T06:09:10.905Z,2.72
2022-09-28T06:12:01.849Z,3.60
2022-09-28T06:17:17.186Z,3.50
2022-09-28T06:19:49.759Z,3.78
2022-09-28T06:22:26.068Z,3.10
2022-09-28T06:25:04.406Z,3.53
2022-09-28T06:27:31.877Z,3.28
2022-09-28T06:30:00.818Z,3.17
2022-09-28T06:32:29.786Z,3.28
2022-09-28T06:34:57.829Z,3.38
2022-09-28T06:37:27.704Z,3.75
2022-09-28T06:39:56.390Z,3.47
2022-09-28T06:42:24.734Z,3.75
2022-09-28T06:45:11.353Z,3.13
2022-09-28T06:48:05.321Z,3.53
2022-09-28T06:50:41.013Z,3.15
2022-09-28T06:53:28.431Z,3.20
2022-09-28T06:56:16.119Z,3.78
2022-09-28T06:58:43.624Z,3.42
2022-09-28T07:01:12.052Z,4.18
2022-09-28T07:03:54.869Z,3.38
2022-09-28T07:06:50.527Z,4.55
2022-09-28T07:09:41.524Z,3.80
2022-09-28T07:12:21.829Z,3.95
2022-09-28T07:14:59.653Z,4.35
2022-09-28T07:17:29.301Z,4.20
2022-09-28T07:20:08.743Z,4.65
2022-09-28T07:22:43.391Z,4.55
2022-09-28T07:25:16.071Z,5.25
2022-09-28T07:27:59.749Z,5.90
2022-09-28T07:33:12.547Z,4.43
2022-09-28T07:35:55.536Z,4.15
2022-09-28T07:38:30.422Z,4.78
2022-09-28T07:41:14.043Z,4.60
2022-09-28T07:43:46.191Z,4.90
2022-09-28T07:46:13.816Z,4.65
2022-09-28T07:48:52.702Z,4.68
2022-09-28T07:51:25.491Z,4.95
2022-09-28T07:54:11.583Z,5.18
2022-09-28T07:56:53.521Z,4.60
2022-09-28T07:59:38.309Z,5.45
2022-09-28T08:02:41.640Z,4.50
2022-09-28T08:05:09.988Z,5.57
2022-09-28T08:07:38.440Z,5.03
2022-09-28T08:10:09.843Z,4.65
2022-09-28T08:13:05.468Z,5.25
2022-09-28T08:15:53.946Z,5.20
2022-09-28T08:18:41.875Z,4.97
2022-09-28T08:21:29.045Z,4.90
2022-09-28T08:23:56.737Z,5.20
2022-09-28T08:26:24.618Z,4.90
2022-09-28T08:28:52.733Z,4.82
2022-09-28T08:31:49.379Z,4.90
2022-09-28T08:34:42.455Z,4.65
2022-09-28T08:37:20.689Z,4.45
2022-09-28T08:40:21.872Z,4.93
2022-09-28T08:43:44.830Z,4.60
2022-09-28T08:46:29.188Z,4.85
2022-09-28T08:49:31.127Z,5.35
2022-09-28T08:52:28.298Z,5.25
2022-09-28T08:55:28.714Z,5.50
2022-09-28T08:58:13.985Z,4.70
2022-09-28T09:00:47.537Z,5.35
2022-09-28T09:03:32.467Z,4.63
2022-09-28T09:06:18.761Z,4.57
2022-09-28T09:09:13.905Z,5.55
2022-09-28T09:11:58.422Z,5.03
2022-09-28T09:14:59.122Z,4.80
2022-09-28T09:18:01.815Z,5.28
2022-09-28T09:20:59.013Z,5.18
2022-09-28T09:23:37.337Z,5.72
2022-09-28T09:29:28.104Z,4.95
2022-09-28T09:32:22.570Z,5.28
2022-09-28T09:35:37.581Z,5.85
2022-09-28T09:38:52.213Z,5.63
2022-09-28T09:41:58.594Z,5.25
2022-09-28T09:45:22.527Z,4.82
2022-09-28T09:48:15.892Z,5.40
2022-09-28T09:50:54.081Z,5.43
2022-09-28T09:53:36.107Z,4.88
2022-09-28T09:56:13.019Z,4.82
2022-09-28T09:59:06.683Z,4.70
2022-09-28T10:01:40.594Z,4.97
2022-09-28T10:04:41.640Z,5.00
2022-09-28T10:07:29.810Z,4.97
2022-09-28T10:10:02.310Z,3.70
2022-09-28T10:12:41.569Z,3.70
2022-09-28T10:15:15.448Z,4.03
2022-09-28T10:17:55.661Z,3.10
2022-09-28T10:20:45.039Z,3.00
2022-09-28T10:23:36.748Z,3.90
2022-09-28T10:26:10.186Z,2.92
2022-09-28T10:28:48.318Z,3.10
2022-09-28T10:31:38.167Z,2.58
2022-09-28T10:34:14.687Z,2.30
2022-09-28T10:36:51.527Z,1.73
2022-09-28T10:39:32.930Z,1.80
2022-09-28T10:42:08.748Z,1.63
2022-09-28T10:44:50.583Z,1.60
2022-09-28T10:47:35.553Z,1.60
2022-09-28T10:50:21.121Z,2.40
2022-09-28T10:52:49.848Z,1.85
2022-09-28T10:55:57.829Z,1.60
2022-09-28T10:58:37.062Z,1.73
2022-09-28T11:01:31.226Z,1.27
2022-09-28T11:04:05.328Z,1.40
2022-09-28T11:06:37.434Z,1.38
2022-09-28T11:09:26.150Z,1.00
2022-09-28T11:12:01.441Z,1.55
2022-09-28T11:14:42.487Z,1.00
2022-09-28T11:17:28.746Z,1.35
2022-09-28T11:20:27.418Z,1.20
2022-09-28T11:23:00.576Z,1.40
2022-09-28T11:25:34.162Z,1.20
2022-09-28T11:28:04.546Z,1.20
2022-09-28T11:33:46.839Z,1.65
2022-09-28T11:36:54.994Z,1.10
2022-09-28T11:39:39.517Z,1.20
2022-09-28T11:42:18.639Z,1.50
2022-09-28T11:44:49.024Z,1.80
2022-09-28T11:47:35.497Z,1.00
2022-09-28T11:50:24.405Z,1.10
2022-09-28T11:53:11.654Z,1.05
2022-09-28T11:55:45.715Z,1.13
2022-09-28T11:58:35.385Z,1.30
2022-09-28T12:01:42.655Z,0.93
2022-09-28T12:04:56.947Z,1.13
2022-09-28T12:07:32.603Z,1.40
2022-09-28T12:10:27.080Z,1.33
2022-09-28T12:13:17.367Z,1.20
2022-09-28T12:16:38.779Z,1.20
2022-09-28T12:19:08.172Z,1.27
2022-09-28T12:21:38.777Z,1.20
2022-09-28T12:24:27.314Z,1.83
2022-09-28T12:27:09.608Z,1.10
2022-09-28T12:29:57.117Z,1.15
2022-09-28T12:32:38.996Z,1.13
2022-09-28T12:35:16.210Z,1.30
2022-09-28T12:38:16.111Z,1.58
2022-09-28T12:40:55.636Z,1.20
2022-09-28T12:43:49.887Z,1.55
2022-09-28T12:46:36.656Z,1.10
2022-09-28T12:55:36.098Z,1.05
2022-09-28T12:58:21.728Z,1.50
2022-09-28T13:01:24.754Z,1.10
2022-09-28T13:03:55.200Z,1.13
2022-09-28T13:06:45.141Z,1.20
2022-09-28T13:09:20.324Z,1.35
2022-09-28T13:12:13.867Z,1.30
2022-09-28T13:15:03.216Z,1.15
2022-09-28T13:18:12.020Z,1.40
2022-09-28T13:20:48.312Z,1.50
2022-09-28T13:23:21.384Z,1.30
2022-09-28T13:26:13.929Z,1.00
2022-09-28T13:28:43.487Z,1.50
2022-09-28T13:31:12.973Z,1.65
2022-09-28T13:33:43.941Z,1.20
2022-09-28T13:38:59.816Z,1.38
2022-09-28T13:41:33.438Z,1.52
2022-09-28T13:44:10.960Z,1.05
2022-09-28T13:47:10.096Z,1.20
2022-09-28T13:50:15.242Z,1.25
2022-09-28T13:52:47.779Z,1.05
2022-09-28T13:55:32.905Z,1.30
2022-09-28T13:58:05.445Z,1.48
2022-09-28T14:00:45.589Z,1.30
2022-09-28T14:03:34.164Z,1.23
2022-09-28T14:06:27.927Z,1.23
2022-09-28T14:09:13.572Z,1.35
2022-09-28T14:11:44.327Z,1.00
2022-09-28T14:14:13.715Z,1.40
2022-09-28T14:16:42.293Z,1.00
2022-09-28T14:19:21.285Z,1.92
2022-09-28T14:22:13.180Z,1.10
2022-09-28T14:25:00.653Z,1.85
2022-09-28T14:27:54.035Z,1.27
2022-09-28T14:30:33.073Z,1.20
2022-09-28T14:33:02.546Z,1.65
2022-09-28T14:35:40.135Z,1.42
2022-09-28T14:38:38.441Z,1.30
2022-09-28T14:41:34.632Z,1.13
2022-09-28T14:44:16.396Z,1.20
2022-09-28T14:46:46.159Z,1.10
2022-09-28T14:49:19.829Z,1.00
2022-09-28T14:51:53.025Z,0.85
2022-09-28T14:54:26.541Z,1.17
2022-09-28T14:56:54.263Z,1.25
2022-09-28T14:59:38.599Z,0.90
2022-09-28T15:02:13.373Z,1.20
2022-09-28T15:05:06.665Z,1.33
2022-09-28T15:07:50.598Z,0.90
2022-09-28T15:10:31.299Z,1.10
2022-09-28T15:13:01.853Z,1.00
2022-09-28T15:15:36.702Z,0.95
2022-09-28T15:18:34.915Z,1.00
2022-09-28T15:21:02.634Z,1.05
2022-09-28T15:23:44.188Z,1.00
2022-09-28T15:26:29.666Z,1.15
2022-09-28T15:28:57.501Z,1.15
2022-09-28T15:31:28.359Z,1.00
2022-09-28T15:34:14.852Z,1.00
2022-09-28T15:36:46.468Z,1.33
2022-09-28T15:39:46.183Z,1.10
2022-09-28T15:42:14.557Z,1.10
2022-09-28T15:44:43.184Z,0.98
2022-09-28T15:47:24.852Z,1.60
2022-09-28T15:49:58.646Z,1.20
2022-09-28T15:52:47.097Z,1.10
2022-09-28T15:55:26.292Z,1.50
2022-09-28T15:58:07.622Z,1.08
2022-09-28T16:00:35.814Z,1.20
2022-09-28T16:03:08.322Z,1.40
2022-09-28T16:05:57.647Z,1.10
2022-09-28T16:08:32.908Z,1.10
2022-09-28T16:11:27.752Z,1.08
2022-09-28T16:14:19.520Z,1.55
2022-09-28T16:16:50.295Z,1.15
2022-09-28T16:19:32.010Z,1.10
2022-09-28T16:22:01.986Z,1.15
2022-09-28T16:24:34.008Z,1.10
2022-09-28T16:27:22.272Z,1.10
2022-09-28T16:30:24.928Z,1.08
2022-09-28T16:32:56.410Z,1.15
2022-09-28T16:35:30.344Z,1.30
2022-09-28T16:38:08.273Z,1.52
2022-09-28T16:40:40.235Z,1.10
2022-09-28T16:43:09.255Z,1.10
2022-09-28T16:45:38.057Z,1.30
2022-09-28T16:48:05.747Z,1.30
2022-09-28T16:50:33.358Z,1.30
2022-09-28T16:53:29.986Z,1.30
2022-09-28T16:55:58.668Z,1.60
2022-09-28T16:58:26.477Z,1.30
2022-09-28T17:00:54.811Z,1.58
2022-09-28T17:03:23.429Z,1.80
2022-09-28T17:05:52.077Z,1.55
2022-09-28T17:08:22.218Z,1.38
2022-09-28T17:13:45.948Z,1.30
2022-09-28T17:16:21.032Z,1.80
2022-09-28T17:18:52.673Z,1.98
2022-09-28T17:21:20.700Z,1.70
2022-09-28T17:23:50.154Z,6.78
2022-09-28T17:26:30.220Z,6.65
2022-09-28T17:28:59.411Z,4.13
2022-09-28T17:31:27.094Z,1.50
2022-09-28T17:33:54.628Z,1.60
2022-09-28T17:36:22.584Z,1.25
2022-09-28T17:38:51.746Z,1.33
2022-09-28T17:41:21.069Z,2.25
2022-09-28T17:43:49.442Z,1.80
2022-09-28T17:46:38.712Z,1.83
2022-09-28T17:49:07.660Z,1.88
2022-09-28T17:51:37.724Z,1.50
2022-09-28T17:54:08.034Z,2.38
2022-09-28T17:56:36.467Z,1.70
2022-09-28T17:59:06.773Z,1.80
2022-09-28T18:01:38.211Z,2.10
2022-09-28T18:04:08.139Z,1.75
2022-09-28T18:06:37.514Z,2.30
2022-09-28T18:09:05.380Z,2.40
2022-09-28T18:11:33.588Z,2.35
2022-09-28T18:14:01.369Z,2.53
2022-09-28T18:16:29.313Z,2.83
2022-09-28T18:18:58.190Z,3.13
2022-09-28T18:21:25.663Z,3.00
2022-09-28T18:23:53.306Z,3.10
2022-09-28T18:26:20.868Z,4.00
2022-09-28T18:28:48.301Z,3.55
2022-09-28T18:31:18.993Z,3.85
2022-09-28T18:33:48.332Z,4.68
2022-09-28T18:36:16.019Z,3.95
2022-09-28T18:38:43.453Z,3.90
2022-09-28T18:41:15.678Z,4.43
2022-09-28T18:43:49.106Z,4.57
2022-09-28T18:46:20.698Z,4.38
2022-09-28T18:48:48.300Z,4.35
2022-09-28T18:51:15.745Z,4.50
2022-09-28T18:53:43.114Z,4.50
2022-09-28T18:56:14.678Z,4.70
2022-09-28T18:58:43.696Z,4.82
2022-09-28T19:01:33.824Z,5.35
2022-09-28T19:04:03.782Z,5.05
2022-09-28T19:06:32.151Z,5.07
2022-09-28T19:08:59.889Z,4.60
2022-09-28T19:11:28.580Z,4.78
2022-09-28T19:13:56.534Z,4.50
2022-09-28T19:16:27.397Z,5.40
2022-09-28T19:18:58.952Z,3.80
2022-09-28T19:21:27.314Z,4.25
2022-09-28T19:23:55.546Z,3.80
2022-09-28T19:26:25.390Z,3.95
2022-09-28T19:28:53.507Z,3.40
2022-09-28T19:31:22.189Z,3.72
2022-09-28T19:33:50.494Z,4.30
2022-09-28T19:36:24.052Z,4.38
2022-09-28T19:38:55.477Z,3.65
2022-09-28T19:41:46.453Z,3.92
2022-09-28T19:44:25.861Z,3.60
2022-09-28T19:46:58.802Z,3.50
2022-09-28T19:49:27.865Z,3.38
2022-09-28T19:54:52.108Z,7.13
2022-09-28T19:57:19.614Z,12.15
2022-09-28T19:59:50.778Z,10.20
2022-09-28T20:02:20.424Z,8.10
2022-09-28T20:04:48.514Z,6.43
2022-09-28T20:07:16.011Z,5.28
2022-09-28T20:09:43.573Z,4.90
2022-09-28T20:12:11.189Z,4.28
2022-09-28T20:14:40.452Z,4.20
2022-09-28T20:17:09.107Z,3.80
2022-09-28T20:19:36.536Z,3.08
2022-09-28T20:22:04.390Z,3.88
2022-09-28T20:24:32.110Z,3.88
2022-09-28T20:27:01.184Z,3.25
2022-09-28T20:29:31.530Z,3.95
2022-09-28T20:31:59.317Z,4.75
2022-09-28T20:34:26.812Z,3.90
2022-09-28T20:36:54.245Z,3.60
2022-09-28T20:39:21.672Z,3.63
2022-09-28T20:41:49.386Z,3.22
2022-09-28T20:44:16.965Z,3.65
2022-09-28T20:46:44.559Z,3.83
2022-09-28T20:49:12.162Z,3.88
2022-09-28T20:51:39.589Z,4.13
2022-09-28T20:54:07.244Z,3.58
2022-09-28T20:56:38.822Z,4.32
2022-09-28T20:59:12.692Z,3.92
2022-09-28T21:01:40.714Z,4.63
2022-09-28T21:04:09.584Z,4.63
2022-09-28T21:06:39.551Z,4.22
2022-09-28T21:09:08.772Z,3.92
2022-09-28T21:11:36.467Z,3.90
2022-09-28T21:14:06.794Z,4.95
2022-09-28T21:16:35.446Z,3.92
2022-09-28T21:19:03.524Z,3.92
2022-09-28T21:21:31.438Z,4.22
2022-09-28T21:23:59.107Z,4.63
2022-09-28T21:26:28.859Z,4.20
2022-09-28T21:29:02.114Z,4.82
2022-09-28T21:31:32.879Z,4.43
2022-09-28T21:36:28.389Z,3.80
2022-09-28T21:38:56.200Z,4.57
2022-09-28T21:41:24.699Z,4.65
2022-09-28T21:43:52.154Z,4.32
2022-09-28T21:46:19.921Z,4.93
2022-09-28T21:48:52.419Z,4.55
2022-09-28T21:51:20.450Z,4.68
2022-09-28T21:53:49.177Z,5.00
2022-09-28T21:56:17.479Z,4.43
2022-09-28T21:58:45.293Z,3.95
2022-09-28T22:01:19.556Z,4.70
2022-09-28T22:03:50.581Z,4.10
2022-09-28T22:06:21.246Z,4.40
2022-09-28T22:08:49.899Z,3.88
2022-09-28T22:11:20.138Z,4.88
2022-09-28T22:13:53.464Z,4.72
2022-09-28T22:16:24.429Z,4.60
2022-09-28T22:21:20.678Z,4.20
2022-09-28T22:23:48.564Z,4.30
2022-09-28T22:26:21.544Z,4.45
2022-09-28T22:28:50.679Z,4.82
2022-09-28T22:31:39.130Z,4.93
2022-09-28T22:34:07.272Z,4.28
2022-09-28T22:36:35.451Z,4.32
2022-09-28T22:39:04.560Z,4.10
2022-09-28T22:41:32.559Z,3.85
2022-09-28T22:44:00.507Z,3.70
2022-09-28T22:46:31.121Z,4.30
2022-09-28T22:48:59.307Z,4.35
2022-09-28T22:51:28.185Z,3.80
2022-09-28T22:53:56.612Z,4.40
2022-09-28T22:56:25.153Z,4.18
2022-09-28T22:58:53.163Z,3.80
2022-09-28T23:01:23.536Z,4.32
2022-09-28T23:03:52.565Z,3.60
2022-09-28T23:06:22.490Z,4.07
2022-09-28T23:08:51.374Z,3.70
2022-09-28T23:11:19.754Z,4.10
2022-09-28T23:13:51.911Z,3.50
2022-09-28T23:16:20.286Z,3.33
2022-09-28T23:18:49.244Z,3.60
2022-09-28T23:21:19.839Z,3.70
2022-09-28T23:23:55.623Z,3.38
2022-09-28T23:26:26.591Z,3.90
2022-09-28T23:28:54.614Z,4.05
2022-09-28T23:31:28.405Z,3.30
2022-09-28T23:34:06.150Z,3.80
2022-09-28T23:36:34.534Z,3.55
2022-09-28T23:39:02.410Z,3.80
2022-09-28T23:41:30.510Z,3.42
2022-09-28T23:43:58.045Z,3.90
2022-09-28T23:46:25.538Z,3.47
2022-09-28T23:48:53.045Z,3.58
2022-09-28T23:51:20.668Z,3.53
2022-09-28T23:53:48.205Z,3.35
2022-09-28T23:56:15.738Z,3.38
2022-09-28T23:58:43.221Z,3.55
